createdAt,value
2018-05-03T00:01:40.651Z,79.60
2018-05-03T00:04:08.797Z,79.90
2018-05-03T00:06:37.823Z,80.50
2018-05-03T00:09:05.979Z,80.50
2018-05-03T00:11:34.164Z,80.30
2018-05-03T00:14:02.315Z,80.70
2018-05-03T00:16:30.680Z,81.10
2018-05-03T00:18:59.604Z,80.70
2018-05-03T00:21:27.811Z,80.00
2018-05-03T00:23:55.958Z,79.80
2018-05-03T00:26:25.379Z,79.80
2018-05-03T00:28:53.573Z,79.80
2018-05-03T00:31:21.748Z,79.50
2018-05-03T00:33:49.895Z,78.60
2018-05-03T00:36:18.116Z,77.80
2018-05-03T00:38:47.063Z,75.80
2018-05-03T00:41:15.216Z,75.10
2018-05-03T00:43:43.389Z,74.70
2018-05-03T00:46:11.615Z,74.20
2018-05-03T00:48:39.782Z,74.10
2018-05-03T00:51:07.947Z,73.60
2018-05-03T00:53:36.111Z,72.70
2018-05-03T00:56:05.072Z,74.20
2018-05-03T00:58:33.267Z,74.10
2018-05-03T01:01:01.412Z,74.20
2018-05-03T01:03:30.356Z,74.40
2018-05-03T01:05:58.689Z,74.40
2018-05-03T01:08:27.619Z,71.30
2018-05-03T01:10:55.774Z,71.10
2018-05-03T01:13:23.938Z,71.10
2018-05-03T01:15:52.255Z,70.80
2018-05-03T01:18:21.254Z,71.20
2018-05-03T01:20:49.398Z,70.90
2018-05-03T01:23:17.575Z,71.60
2018-05-03T01:25:45.807Z,71.60
2018-05-03T01:28:14.744Z,70.80
2018-05-03T01:30:42.890Z,70.70
2018-05-03T01:33:11.062Z,71.10
2018-05-03T01:35:51.147Z,71.90
2018-05-03T01:38:19.317Z,71.70
2018-05-03T01:40:47.461Z,73.40
2018-05-03T01:43:15.647Z,73.50
2018-05-03T01:45:43.866Z,73.30
2018-05-03T01:48:12.040Z,75.00
2018-05-03T01:50:40.187Z,74.40
2018-05-03T01:53:08.368Z,74.10
2018-05-03T01:55:37.335Z,74.70
2018-05-03T01:58:05.507Z,74.60
2018-05-03T02:00:33.735Z,74.50
2018-05-03T02:03:01.904Z,74.20
2018-05-03T02:05:30.058Z,74.60
2018-05-03T02:07:58.222Z,74.90
2018-05-03T02:10:26.386Z,75.00
2018-05-03T02:12:54.537Z,76.30
2018-05-03T02:15:23.475Z,76.70
2018-05-03T02:17:51.614Z,76.60
2018-05-03T02:20:19.786Z,73.90
2018-05-03T02:22:47.935Z,73.30
2018-05-03T02:25:16.109Z,72.50
2018-05-03T02:27:44.257Z,74.40
2018-05-03T02:30:12.430Z,73.60
2018-05-03T02:32:40.583Z,73.00
2018-05-03T02:35:08.800Z,74.10
2018-05-03T02:37:36.948Z,75.60
2018-05-03T02:40:05.115Z,73.30
2018-05-03T02:42:33.297Z,75.80
2018-05-03T02:45:01.500Z,73.20
2018-05-03T02:47:29.647Z,73.90
2018-05-03T02:49:57.815Z,74.30
2018-05-03T02:52:25.974Z,73.90
2018-05-03T02:54:54.198Z,74.40
2018-05-03T02:57:34.151Z,75.20
2018-05-03T03:00:20.814Z,75.80
2018-05-03T03:03:06.564Z,75.80
2018-05-03T03:05:53.286Z,76.50
2018-05-03T03:12:00.210Z,76.20
2018-05-03T03:14:46.037Z,77.10
2018-05-03T03:17:32.026Z,77.30
2018-05-03T03:23:36.098Z,78.20
2018-05-03T03:26:22.002Z,78.10
2018-05-03T03:29:07.892Z,78.20
2018-05-03T03:31:53.859Z,78.30
2018-05-03T03:34:26.534Z,79.20
2018-05-03T03:37:14.943Z,79.20
2018-05-03T03:40:00.924Z,79.20
2018-05-03T03:51:32.130Z,82.80
2018-05-03T03:54:00.282Z,83.60
2018-05-03T03:56:28.450Z,84.40
2018-05-03T03:58:56.606Z,84.60
2018-05-03T04:01:25.546Z,83.40
2018-05-03T04:03:53.693Z,83.40
2018-05-03T04:06:22.714Z,79.20
2018-05-03T04:08:51.095Z,79.10
2018-05-03T04:11:19.266Z,76.80
2018-05-03T04:13:47.415Z,75.80
2018-05-03T04:16:15.649Z,74.60
2018-05-03T04:18:55.881Z,73.20
2018-05-03T04:24:41.618Z,74.60
2018-05-03T04:27:10.560Z,74.60
2018-05-03T04:29:38.707Z,74.60
2018-05-03T04:32:06.878Z,74.10
2018-05-03T04:34:35.102Z,73.70
2018-05-03T04:37:03.239Z,73.00
2018-05-03T04:39:31.446Z,71.50
2018-05-03T04:41:59.617Z,71.00
2018-05-03T04:44:27.763Z,70.90
2018-05-03T04:46:56.083Z,71.10
2018-05-03T04:49:24.931Z,73.30
2018-05-03T04:51:53.098Z,73.30
2018-05-03T04:54:21.246Z,72.30
2018-05-03T04:56:49.590Z,74.20
2018-05-03T04:59:17.736Z,75.00
2018-05-03T05:01:45.942Z,73.40
2018-05-03T05:04:14.115Z,72.10
2018-05-03T05:06:42.307Z,70.10
2018-05-03T05:09:10.471Z,70.80
2018-05-03T05:11:38.614Z,70.60
2018-05-03T05:14:06.789Z,70.90
2018-05-03T05:16:34.950Z,70.00
2018-05-03T05:19:03.160Z,69.70
2018-05-03T05:21:31.311Z,69.90
2018-05-03T05:23:59.480Z,69.10
2018-05-03T05:26:27.697Z,69.60
2018-05-03T05:28:55.960Z,69.80
2018-05-03T05:31:24.116Z,70.10
2018-05-03T05:33:52.307Z,70.00
2018-05-03T05:36:20.499Z,69.60
2018-05-03T05:38:48.760Z,71.00
2018-05-03T05:41:16.830Z,74.40
2018-05-03T05:43:46.848Z,73.00
2018-05-03T05:46:15.409Z,70.80
2018-05-03T05:48:43.579Z,69.80
2018-05-03T05:51:11.899Z,69.00
2018-05-03T05:53:40.025Z,69.40
2018-05-03T05:56:09.049Z,70.10
2018-05-03T05:58:37.245Z,69.60
2018-05-03T06:01:05.398Z,69.80
2018-05-03T06:03:33.591Z,69.70
2018-05-03T06:06:01.756Z,70.50
2018-05-03T06:08:29.943Z,71.70
2018-05-03T06:10:58.100Z,71.00
2018-05-03T06:13:29.616Z,71.90
2018-05-03T06:16:03.949Z,72.60
2018-05-03T06:18:34.610Z,72.40
2018-05-03T06:21:03.382Z,73.30
2018-05-03T06:23:32.134Z,73.80
2018-05-03T06:26:01.750Z,73.60
2018-05-03T06:28:34.556Z,73.60
2018-05-03T06:31:04.856Z,73.80
2018-05-03T06:33:34.788Z,73.30
2018-05-03T06:36:05.352Z,72.80
2018-05-03T06:38:37.777Z,71.80
2018-05-03T06:41:09.962Z,71.70
2018-05-03T06:43:39.389Z,71.70
2018-05-03T06:46:08.088Z,70.90
2018-05-03T06:48:36.830Z,70.90
2018-05-03T06:51:07.361Z,71.10
2018-05-03T06:53:37.168Z,70.40
2018-05-03T06:56:07.085Z,70.30
2018-05-03T06:58:35.471Z,70.20
2018-05-03T07:01:05.644Z,69.80
2018-05-03T07:03:35.596Z,69.80
2018-05-03T07:06:05.869Z,69.70
2018-05-03T07:08:36.286Z,69.40
2018-05-03T07:11:06.095Z,69.40
2018-05-03T07:13:36.372Z,69.60
2018-05-03T07:16:11.565Z,69.60
2018-05-03T07:18:42.342Z,70.20
2018-05-03T07:21:11.612Z,69.40
2018-05-03T07:23:40.993Z,69.20
2018-05-03T07:26:13.066Z,68.20
2018-05-03T07:28:42.406Z,69.00
2018-05-03T07:31:12.571Z,68.40
2018-05-03T07:33:42.520Z,68.40
2018-05-03T07:36:12.045Z,68.10
2018-05-03T07:38:42.380Z,68.60
2018-05-03T07:41:13.529Z,67.20
2018-05-03T07:43:41.824Z,67.20
2018-05-03T07:46:10.855Z,67.40
2018-05-03T07:48:39.041Z,66.60
2018-05-03T07:51:07.179Z,66.80
2018-05-03T07:53:35.333Z,66.30
2018-05-03T07:56:03.592Z,66.70
2018-05-03T07:58:31.856Z,66.30
2018-05-03T08:01:00.018Z,66.60
2018-05-03T08:03:28.257Z,66.30
2018-05-03T08:05:57.327Z,66.00
2018-05-03T08:08:26.481Z,64.80
2018-05-03T08:10:54.777Z,64.70
2018-05-03T08:13:23.138Z,65.60
2018-05-03T08:15:51.479Z,64.80
2018-05-03T08:18:19.630Z,64.70
2018-05-03T08:20:48.572Z,63.50
2018-05-03T08:23:16.727Z,63.50
2018-05-03T08:25:44.935Z,63.60
2018-05-03T08:28:13.120Z,63.40
2018-05-03T08:30:41.378Z,62.50
2018-05-03T08:33:09.663Z,61.20
2018-05-03T08:35:38.751Z,62.40
2018-05-03T08:38:06.941Z,63.00
2018-05-03T08:40:35.090Z,60.60
2018-05-03T08:43:03.681Z,60.60
2018-05-03T08:45:33.085Z,60.90
2018-05-03T08:48:01.452Z,60.80
2018-05-03T08:50:29.593Z,60.30
2018-05-03T08:52:58.631Z,62.10
2018-05-03T08:55:26.782Z,62.10
2018-05-03T08:57:54.966Z,61.60
2018-05-03T09:00:23.106Z,59.70
2018-05-03T09:02:51.304Z,59.30
2018-05-03T09:05:19.455Z,60.00
2018-05-03T09:07:47.641Z,59.90
2018-05-03T09:10:15.794Z,61.30
2018-05-03T09:12:44.738Z,61.00
2018-05-03T09:15:12.887Z,61.00
2018-05-03T09:17:41.058Z,61.40
2018-05-03T09:20:09.208Z,61.20
2018-05-03T09:22:38.138Z,59.80
2018-05-03T09:25:07.090Z,58.90
2018-05-03T09:27:36.039Z,58.80
2018-05-03T09:30:04.195Z,58.80
2018-05-03T09:32:32.379Z,58.50
2018-05-03T09:35:01.335Z,57.40
2018-05-03T09:37:29.494Z,57.30
2018-05-03T09:39:58.444Z,56.30
2018-05-03T09:42:26.607Z,56.30
2018-05-03T09:44:55.690Z,55.70
2018-05-03T09:47:23.837Z,55.70
2018-05-03T09:49:52.020Z,55.50
2018-05-03T09:52:20.236Z,54.80
2018-05-03T09:54:49.368Z,53.70
2018-05-03T09:57:18.299Z,55.00
2018-05-03T09:59:46.473Z,54.90
2018-05-03T10:02:15.492Z,53.80
2018-05-03T10:04:44.704Z,52.10
2018-05-03T10:07:12.865Z,52.10
2018-05-03T10:09:41.022Z,52.10
2018-05-03T10:12:09.174Z,54.40
2018-05-03T10:14:38.261Z,52.90
2018-05-03T10:17:06.351Z,52.90
2018-05-03T10:19:34.547Z,52.60
2018-05-03T10:22:02.705Z,53.50
2018-05-03T10:24:31.706Z,47.90
2018-05-03T10:26:59.875Z,47.90
2018-05-03T10:29:28.047Z,50.50
2018-05-03T10:31:56.232Z,52.90
2018-05-03T10:34:25.247Z,50.80
2018-05-03T10:36:53.366Z,50.70
2018-05-03T10:39:21.558Z,50.10
2018-05-03T10:41:49.712Z,51.00
2018-05-03T10:44:17.969Z,48.40
2018-05-03T10:46:46.890Z,51.20
2018-05-03T10:49:15.097Z,50.40
2018-05-03T10:51:43.586Z,50.40
2018-05-03T10:54:11.854Z,50.40
2018-05-03T10:56:40.026Z,49.60
2018-05-03T10:59:08.615Z,49.50
2018-05-03T11:01:37.098Z,50.00
2018-05-03T11:04:05.780Z,49.80
2018-05-03T11:06:34.157Z,48.90
2018-05-03T11:09:02.400Z,49.60
2018-05-03T11:11:30.599Z,49.40
2018-05-03T11:13:59.953Z,50.10
2018-05-03T11:16:29.615Z,50.50
2018-05-03T11:18:58.806Z,50.50
2018-05-03T11:21:28.016Z,50.70
2018-05-03T11:23:56.596Z,51.80
2018-05-03T11:26:26.089Z,51.10
2018-05-03T11:28:55.283Z,51.50
2018-05-03T11:31:24.602Z,52.10
2018-05-03T11:33:53.657Z,50.80
2018-05-03T11:36:22.259Z,50.80
2018-05-03T11:38:51.363Z,50.90
2018-05-03T11:41:19.538Z,50.80
2018-05-03T11:43:47.699Z,50.20
2018-05-03T11:46:17.406Z,52.30
2018-05-03T11:48:45.648Z,52.20
2018-05-03T11:51:13.746Z,50.60
2018-05-03T11:53:41.904Z,50.80
2018-05-03T11:56:10.096Z,49.60
2018-05-03T11:58:38.258Z,50.30
2018-05-03T12:01:06.443Z,51.40
2018-05-03T12:03:35.411Z,51.00
2018-05-03T12:06:03.639Z,51.00
2018-05-03T12:08:31.782Z,51.20
2018-05-03T12:10:59.977Z,50.70
2018-05-03T12:13:28.172Z,51.30
2018-05-03T12:15:56.405Z,50.80
2018-05-03T12:18:24.574Z,51.70
2018-05-03T12:20:52.768Z,52.50
2018-05-03T12:23:20.991Z,50.60
2018-05-03T12:25:49.194Z,52.60
2018-05-03T12:28:17.374Z,51.80
2018-05-03T12:30:45.572Z,50.70
2018-05-03T12:33:13.830Z,51.00
2018-05-03T12:35:41.999Z,51.90
2018-05-03T12:38:10.201Z,52.20
2018-05-03T12:40:39.135Z,51.10
2018-05-03T12:43:07.354Z,51.10
2018-05-03T12:45:35.536Z,51.80
2018-05-03T12:48:04.554Z,51.50
2018-05-03T12:50:32.675Z,50.90
2018-05-03T12:53:00.867Z,50.80
2018-05-03T12:55:29.044Z,50.40
2018-05-03T12:57:57.226Z,50.90
2018-05-03T13:00:25.396Z,50.40
2018-05-03T13:02:53.635Z,51.20
2018-05-03T13:05:21.798Z,50.30
2018-05-03T13:07:49.989Z,50.80
2018-05-03T13:10:18.166Z,51.00
2018-05-03T13:12:46.417Z,51.70
2018-05-03T13:15:14.644Z,50.30
2018-05-03T13:17:43.749Z,51.00
2018-05-03T13:20:11.922Z,51.00
2018-05-03T13:22:40.151Z,52.00
2018-05-03T13:25:08.331Z,52.40
2018-05-03T13:27:36.531Z,50.30
2018-05-03T13:30:04.715Z,52.30
2018-05-03T13:32:33.707Z,51.00
2018-05-03T13:35:01.971Z,50.90
2018-05-03T13:37:30.170Z,52.00
2018-05-03T13:39:59.113Z,51.40
2018-05-03T13:42:27.390Z,51.40
2018-05-03T13:44:55.561Z,51.60
2018-05-03T13:47:23.766Z,51.10
2018-05-03T13:49:52.767Z,50.70
2018-05-03T13:52:21.015Z,50.70
2018-05-03T13:54:49.190Z,50.80
2018-05-03T13:57:17.390Z,50.90
2018-05-03T13:59:45.660Z,51.40
2018-05-03T14:02:14.125Z,50.30
2018-05-03T14:04:42.303Z,51.50
2018-05-03T14:07:10.664Z,54.90
2018-05-03T14:09:39.586Z,51.00
2018-05-03T14:12:08.018Z,50.90
2018-05-03T14:14:36.353Z,51.10
2018-05-03T14:17:04.686Z,51.30
2018-05-03T14:19:32.894Z,51.00
2018-05-03T14:22:01.127Z,50.80
2018-05-03T14:24:29.334Z,52.20
2018-05-03T14:26:57.506Z,51.30
2018-05-03T14:29:25.707Z,50.60
2018-05-03T14:31:54.675Z,51.30
2018-05-03T14:34:22.875Z,51.30
2018-05-03T14:36:51.832Z,51.10
2018-05-03T14:39:20.042Z,51.10
2018-05-03T14:41:48.334Z,52.10
2018-05-03T14:44:17.300Z,52.30
2018-05-03T14:46:46.986Z,52.70
2018-05-03T14:49:15.190Z,52.70
2018-05-03T14:51:43.475Z,51.40
2018-05-03T14:54:11.655Z,51.40
2018-05-03T14:56:40.611Z,52.20
2018-05-03T14:59:08.817Z,52.20
2018-05-03T15:01:37.836Z,53.40
2018-05-03T15:04:06.056Z,53.00
2018-05-03T15:06:34.249Z,53.00
2018-05-03T15:09:02.435Z,53.00
2018-05-03T15:11:30.803Z,53.80
2018-05-03T15:13:59.084Z,53.70
2018-05-03T15:16:28.984Z,53.00
2018-05-03T15:18:57.181Z,53.50
2018-05-03T15:21:26.122Z,53.10
2018-05-03T15:23:54.326Z,53.10
2018-05-03T15:26:23.266Z,53.70
2018-05-03T15:28:51.585Z,53.60
2018-05-03T15:31:19.935Z,53.50
2018-05-03T15:33:48.186Z,53.30
2018-05-03T15:36:16.321Z,53.10
2018-05-03T15:38:44.534Z,54.40
2018-05-03T15:41:12.739Z,52.40
2018-05-03T15:43:40.942Z,52.10
2018-05-03T15:46:09.122Z,51.70
2018-05-03T15:48:37.497Z,52.30
2018-05-03T15:51:06.689Z,54.40
2018-05-03T15:53:34.874Z,54.40
2018-05-03T15:56:03.083Z,53.80
2018-05-03T15:58:32.026Z,52.80
2018-05-03T16:01:00.285Z,52.70
2018-05-03T16:03:28.471Z,50.90
2018-05-03T16:05:56.676Z,51.80
2018-05-03T16:08:24.857Z,52.70
2018-05-03T16:10:53.107Z,53.00
2018-05-03T16:13:21.280Z,53.00
2018-05-03T16:15:49.479Z,53.10
2018-05-03T16:18:18.103Z,53.10
2018-05-03T16:20:46.302Z,53.60
2018-05-03T16:23:14.474Z,53.50
2018-05-03T16:25:42.674Z,54.10
2018-05-03T16:28:10.863Z,54.00
2018-05-03T16:30:39.063Z,54.80
2018-05-03T16:33:07.243Z,54.50
2018-05-03T16:35:35.443Z,54.80
2018-05-03T16:38:03.618Z,55.00
2018-05-03T16:40:31.903Z,55.10
2018-05-03T16:43:00.171Z,55.40
2018-05-03T16:45:28.316Z,56.30
2018-05-03T16:47:56.511Z,56.40
2018-05-03T16:50:24.767Z,56.60
2018-05-03T16:52:52.959Z,56.80
2018-05-03T16:55:21.180Z,56.60
2018-05-03T16:57:49.372Z,56.60
2018-05-03T17:00:17.619Z,56.60
2018-05-03T17:02:45.802Z,56.90
2018-05-03T17:05:13.994Z,56.90
2018-05-03T17:07:42.958Z,57.00
2018-05-03T17:10:11.206Z,57.00
2018-05-03T17:12:39.413Z,57.60
2018-05-03T17:15:07.603Z,57.50
2018-05-03T17:17:35.821Z,57.40
2018-05-03T17:20:04.112Z,57.50
2018-05-03T17:22:32.319Z,57.40
2018-05-03T17:25:00.504Z,57.60
2018-05-03T17:27:28.731Z,58.00
2018-05-03T17:29:57.003Z,57.90
2018-05-03T17:32:25.203Z,57.70
2018-05-03T17:34:53.386Z,57.80
2018-05-03T17:37:21.583Z,57.70
2018-05-03T17:39:49.817Z,58.30
2018-05-03T17:42:18.014Z,57.90
2018-05-03T17:44:46.314Z,58.20
2018-05-03T17:47:15.272Z,57.90
2018-05-03T17:49:43.565Z,57.90
2018-05-03T17:52:11.773Z,58.00
2018-05-03T17:54:40.716Z,58.50
2018-05-03T17:57:08.924Z,58.50
2018-05-03T17:59:37.159Z,58.90
2018-05-03T18:02:06.404Z,59.00
2018-05-03T18:04:34.551Z,58.70
2018-05-03T18:07:02.744Z,58.90
2018-05-03T18:09:30.961Z,59.00
2018-05-03T18:11:59.183Z,58.60
2018-05-03T18:14:27.360Z,58.70
2018-05-03T18:16:55.586Z,59.10
2018-05-03T18:19:23.866Z,59.30
2018-05-03T18:21:53.006Z,58.50
2018-05-03T18:24:21.182Z,58.40
2018-05-03T18:26:49.388Z,58.90
2018-05-03T18:29:17.687Z,58.70
2018-05-03T18:31:45.876Z,58.50
2018-05-03T18:34:14.081Z,58.60
2018-05-03T18:36:42.240Z,58.90
2018-05-03T18:39:10.545Z,58.60
2018-05-03T18:41:38.787Z,58.70
2018-05-03T18:44:07.682Z,58.40
2018-05-03T18:46:35.923Z,58.30
2018-05-03T18:49:05.377Z,58.40
2018-05-03T18:51:33.571Z,58.40
2018-05-03T18:54:02.563Z,58.40
2018-05-03T18:56:32.242Z,58.10
2018-05-03T18:59:00.472Z,58.10
2018-05-03T19:01:29.407Z,58.30
2018-05-03T19:04:00.870Z,58.60
2018-05-03T19:06:30.463Z,58.30
2018-05-03T19:08:58.737Z,58.30
2018-05-03T19:11:26.922Z,58.40
2018-05-03T19:13:55.123Z,58.20
2018-05-03T19:16:24.083Z,58.60
2018-05-03T19:18:52.799Z,58.60
2018-05-03T19:21:21.771Z,59.20
2018-05-03T19:23:50.080Z,59.20
2018-05-03T19:26:18.250Z,59.00
2018-05-03T19:28:47.538Z,59.80
2018-05-03T19:31:15.718Z,59.80
2018-05-03T19:33:44.710Z,59.50
2018-05-03T19:36:13.678Z,59.00
2018-05-03T19:38:41.947Z,59.00
2018-05-03T19:41:10.141Z,59.00
2018-05-03T19:43:38.343Z,59.10
2018-05-03T19:46:07.324Z,59.30
2018-05-03T19:48:35.582Z,59.30
2018-05-03T19:51:03.779Z,59.30
2018-05-03T19:53:32.053Z,59.40
2018-05-03T19:56:00.214Z,59.40
2018-05-03T19:58:28.392Z,59.50
2018-05-03T20:00:58.090Z,59.70
2018-05-03T20:03:27.375Z,59.50
2018-05-03T20:05:55.571Z,59.50
2018-05-03T20:08:23.801Z,59.80
2018-05-03T20:10:51.968Z,60.00
2018-05-03T20:13:20.146Z,60.50
2018-05-03T20:15:49.116Z,60.00
2018-05-03T20:18:17.415Z,59.70
2018-05-03T20:20:45.606Z,59.80
2018-05-03T20:23:13.782Z,59.80
2018-05-03T20:25:41.986Z,59.80
2018-05-03T20:28:10.992Z,60.30
2018-05-03T20:30:40.703Z,59.60
2018-05-03T20:33:08.916Z,59.60
2018-05-03T20:35:37.861Z,59.70
2018-05-03T20:38:06.103Z,59.60
2018-05-03T20:40:34.294Z,59.60
2018-05-03T20:43:02.498Z,59.70
2018-05-03T20:45:30.691Z,59.60
2018-05-03T20:47:59.000Z,59.30
2018-05-03T20:50:27.210Z,59.40
2018-05-03T20:52:55.381Z,59.70
2018-05-03T20:55:23.578Z,59.30
2018-05-03T20:57:51.890Z,60.00
2018-05-03T21:00:21.543Z,59.50
2018-05-03T21:02:49.733Z,59.50
2018-05-03T21:05:18.699Z,59.20
2018-05-03T21:07:47.210Z,59.20
2018-05-03T21:10:15.398Z,59.30
2018-05-03T21:12:44.415Z,59.40
2018-05-03T21:15:12.647Z,59.40
2018-05-03T21:17:40.971Z,59.80
2018-05-03T21:20:11.028Z,59.70
2018-05-03T21:22:39.207Z,59.70
2018-05-03T21:25:07.415Z,59.70
2018-05-03T21:27:35.763Z,59.90
2018-05-03T21:30:03.939Z,59.70
2018-05-03T21:32:32.141Z,60.30
2018-05-03T21:35:01.078Z,59.50
2018-05-03T21:37:30.188Z,59.50
2018-05-03T21:39:58.359Z,59.70
2018-05-03T21:42:26.554Z,59.80
2018-05-03T21:44:56.230Z,59.70
2018-05-03T21:47:24.524Z,59.80
2018-05-03T21:49:52.692Z,59.20
2018-05-03T21:52:20.953Z,59.30
2018-05-03T21:54:49.076Z,59.40
2018-05-03T21:57:17.413Z,59.20
2018-05-03T21:59:45.583Z,59.40
2018-05-03T22:02:13.779Z,59.20
2018-05-03T22:04:41.949Z,59.30
2018-05-03T22:07:10.214Z,59.40
2018-05-03T22:09:38.393Z,59.40
2018-05-03T22:12:06.596Z,59.50
2018-05-03T22:14:34.772Z,59.50
2018-05-03T22:17:03.758Z,59.40
2018-05-03T22:19:31.923Z,59.30
2018-05-03T22:22:00.110Z,59.40
2018-05-03T22:24:28.266Z,59.40
2018-05-03T22:26:57.274Z,59.20
2018-05-03T22:29:25.428Z,59.20
2018-05-03T22:31:53.612Z,59.50
2018-05-03T22:34:21.794Z,59.60
2018-05-03T22:36:50.778Z,60.90
2018-05-03T22:39:18.969Z,60.90
2018-05-03T22:41:47.163Z,59.60
2018-05-03T22:44:16.819Z,59.80
2018-05-03T22:46:44.991Z,59.80
2018-05-03T22:49:13.167Z,60.10
2018-05-03T22:51:41.319Z,60.10
2018-05-03T22:54:09.496Z,60.30
2018-05-03T22:56:37.743Z,60.60
2018-05-03T22:59:05.918Z,60.30
2018-05-03T23:01:34.069Z,60.20
2018-05-03T23:04:02.254Z,60.30
2018-05-03T23:06:30.566Z,60.50
2018-05-03T23:08:59.511Z,60.40
2018-05-03T23:11:27.662Z,60.40
2018-05-03T23:13:55.834Z,61.10
2018-05-03T23:16:24.814Z,61.70
2018-05-03T23:18:52.990Z,60.90
2018-05-03T23:21:21.139Z,61.30
2018-05-03T23:23:50.078Z,61.70
2018-05-03T23:26:19.055Z,61.40
2018-05-03T23:28:47.230Z,61.40
2018-05-03T23:31:15.391Z,61.50
2018-05-03T23:33:44.340Z,61.60
2018-05-03T23:36:12.486Z,61.60
2018-05-03T23:38:40.653Z,61.50
2018-05-03T23:41:08.804Z,61.10
2018-05-03T23:43:36.979Z,61.50
2018-05-03T23:46:05.204Z,61.40
2018-05-03T23:48:33.382Z,61.40
2018-05-03T23:51:01.530Z,61.40
2018-05-03T23:53:29.694Z,61.70
2018-05-03T23:55:57.906Z,62.10
2018-05-03T23:58:26.171Z,62.30
